Cactus Peak, Santa Catalina Island Weather observations

Data are for 10 minute period ending at time listed.
 Day   Time   Solar   Ave.   Ave.  Ave.  Vector    Max.   Stn.    Total
  of    of     Rad.   Air    Rel.  Wind   Wind     Wind   Baro.  Precip.
Year   Day            Temp.  Hum.  Speed  Dir.     Gust   Pres.         
2014   (PST)   W/m2    F      %     mph   deg.      mph    mb.     in.  
------------------------------------------------------------------------
 202    7:20  197.0    66   83.7     4    313.6     5.4    999.0   0.00  
 202    7:30  162.0    67   81.8     4    317.0     8.4    999.0   0.00  
 202    7:40  157.0    67   82.8     7    340.4    10.2    999.0   0.00  
 202    7:50  222.0    66   81.7     6    308.0     9.0    999.0   0.00  
 202    8:00  218.0    68   79.9     6    336.6     9.6    999.0   0.00  
 202    8:10  313.0    68   78.8     7    344.3     9.6    999.0   0.00  
 202    8:20  495.0    69   77.2     6    345.9     9.0    999.0   0.00  
 202    8:30  393.0    69   76.9     5    328.5     9.0    999.0   0.00  
 202    8:40  265.0    69   76.7     5    334.8     9.6    999.0   0.00  
 202    8:50  349.0    68   77.2     7    347.7    10.2    999.0   0.00  
 202    9:00  406.0    69   75.2     5    353.3    10.2    999.0   0.00  
 202    9:10  690.0    69   73.6     6    352.6    11.3    999.0   0.00  
 202    9:20  739.0    71   70.6     5    324.8    10.8    999.0   0.00  
 202    9:30  675.0    72   69.2     5    308.8    10.2    999.0   0.00  
 202    9:40  614.0    72   69.0     9    345.3    13.1    999.0   0.00  
 202    9:50  724.0    72   67.8    10    331.8    13.7    999.0   0.00  
 202   10:00  620.0    72   68.6    10    332.3    13.7    999.0   0.00  
 202   10:10  728.0    72   67.6     9    340.2    14.9    999.0   0.00  
 202   10:20  749.0    72   67.7    10    336.3    14.9    999.0   0.00  
 202   10:30  843.0    73   66.4    10    337.7    14.3    999.0   0.00  
 202   10:40  880.0    73   66.4    10    324.1    14.3    999.0   0.00  
 202   10:50  893.0    72   67.3    10    335.3    14.3    999.0   0.00  
 202   11:00  909.0    73   68.2    10    330.7    13.7    999.0   0.00  
 202   11:10  936.0    73   69.2    10    324.6    14.9    999.0   0.00  
 202   11:20  970.0    73   70.4     8    311.8    13.1    999.0   0.00  
 202   11:30  789.0    71   74.6     9    293.4    13.1    999.0   0.00  
 202   11:40  879.0    71   73.4    11    296.3    15.5    999.0   0.00  
 202   11:50  794.0    70   74.2    12    306.3    16.7    999.0   0.00  
 202   12:00  853.0    72   70.8    10    317.5    17.3    999.0   0.00  
 202   12:10  873.0    72   71.9    13    332.7    19.7    999.0   0.00  
 202   12:20  935.0    71   72.3    12    334.0    17.9    999.0   0.00  
 202   12:30  935.0    71   72.1    11    335.5    16.7    999.0   0.00  
 202   12:40  931.0    72   71.2    12    337.6    20.3    999.0   0.00  
 202   12:50  926.0    72   71.5    13    336.9    18.5    999.0   0.00  
 202   13:00  921.0    72   71.8    12    328.5    17.9    999.0   0.00  
 202   13:10  915.0    73   71.8    11    330.7    16.7    999.0   0.00  
 202   13:20  903.0    72   73.3    14    343.8    20.9    999.0   0.00  
 202   13:30  891.0    71   74.6    14    336.0    21.5    999.0   0.00  
 202   13:40  880.0    72   72.8    12    337.7    18.5    999.0   0.00  
 202   13:50  866.0    72   73.7    14    342.1    20.9    999.0   0.00  
 202   14:00  853.0    72   73.6    13    325.2    18.5    999.0   0.00  
 202   14:10  895.0    71   75.0    12    299.6    17.9    999.0   0.00  
 202   14:20  848.0    71   74.4    11    300.1    17.9    999.0   0.00  
 202   14:30  800.0    71   73.8    11    305.7    16.7    999.0   0.00  
 202   14:40  771.0    72   72.3    14    332.7    22.7    999.0   0.00  
 202   14:50  747.0    71   74.5    15    341.3    20.3    999.0   0.00  
 202   15:00  724.0    72   72.5    14    335.5    19.1    999.0   0.00  
 202   15:10  700.0    71   74.1    14    332.8    20.3    999.0   0.00  
 202   15:20  674.0    71   74.2    15    332.2    20.3    999.0   0.00  
 202   15:30  648.0    70   74.9    16    336.0    23.3    999.0   0.00  
 202   15:40  620.0    70   75.1    16    337.6    24.5    999.0   0.00  
 202   15:50  592.0    70   75.3    17    337.6    23.9    999.0   0.00  
 202   16:00  562.0    70   74.9    16    343.3    23.3    999.0   0.00  
 202   16:10  532.0    70   73.0    16    338.6    24.5    999.0   0.00  
 202   16:20  500.0    70   73.4    16    348.4    20.9    999.0   0.00  
 202   16:30  470.0    70   72.8    15    341.0    19.7    999.0   0.00  
 202   16:40  438.0    70   73.7    16    344.7    21.5    999.0   0.00  
 202   16:50  406.0    69   75.8    17    342.8    22.7    999.0   0.00  
 202   17:00  374.0    69   75.9    16    345.9    21.5    999.0   0.00  
 202   17:10  341.0    68   77.2    18    345.8    22.1    999.0   0.00  
 202   17:20  309.0    68   77.3    19    341.4    23.9    999.0   0.00  
 202   17:30  278.0    67   79.7    19    344.7    27.4    999.0   0.00  
 202   17:40  244.0    67   80.6    20    340.8    26.2    999.0   0.00  
 202   17:50  206.0    66   81.4    20    342.3    25.6    999.0   0.00  
 202   18:00  165.0    66   81.6    20    342.2    27.4    999.0   0.00  
 202   18:10  149.0    66   81.7    20    344.6    26.2    999.0   0.00  
 202   18:20   74.0    65   83.9    20    345.5    25.6    999.0   0.00  
 202   18:30   38.0    65   86.3    18    347.4    26.2    999.0   0.00  
 202   18:40   29.0    65   87.1    18    345.5    24.5    999.0   0.00  
 202   18:50   15.0    64   87.7    18    343.2    23.9    999.0   0.00  
 202   19:00    4.0    64   88.2    18    341.5    22.7    999.0   0.00  
 202   19:10    2.0    64   88.6    17    346.4    22.7    999.0   0.00  
 202   19:20    0.0    64   88.7    16    343.4    20.9    999.0   0.00  
 202   19:30    0.0    64   88.6    13    341.3    18.5    999.0   0.00  
 202   19:40    0.0    64   88.5    12    343.8    16.1    999.0   0.00  
 202   19:50    0.0    64   88.9    14    340.1    17.9    999.0   0.00  
 202   20:00    0.0    64   89.3    13    340.0    16.1    999.0   0.00  
 202   20:10    0.0    64   89.5    14    340.6    17.3    999.0   0.00  
 202   20:20    0.0    64   89.6    13    340.5    17.9    999.0   0.00  
 202   20:30    0.0    64   89.7    14    338.4    17.9    999.0   0.00  
 202   20:40    0.0    64   89.7    15    338.6    19.1    999.0   0.00  
 202   20:50    0.0    64   89.7    14    343.9    17.3    999.0   0.00  
 202   21:00    0.0    64   89.8    13    347.7    17.9    999.0   0.00  
 202   21:10    0.0    64   89.8    13    349.6    16.1    999.0   0.00  
 202   21:20    0.0    64   89.9    13    341.1    16.1    999.0   0.00  
 202   21:30    0.0    64   89.9    13    344.7    16.1    999.0   0.00  
 202   21:40    0.0    64   89.9    12    344.6    16.1    999.0   0.00  
 202   21:50    0.0    64   89.9    12    347.3    17.3    999.0   0.00  
 202   22:00    0.0    64   90.0    10    345.5    13.7    999.0   0.00  
 202   22:10    0.0    64   90.0    10    343.9    13.7    999.0   0.00  
 202   22:20    0.0    64   90.1    11    349.8    14.9    999.0   0.00  
 202   22:30    0.0    64   90.1    11    345.5    14.9    999.0   0.00  
 202   22:40    0.0    64   90.1    11    346.7    14.9    999.0   0.00  
 202   22:50    0.0    64   90.1    11    343.9    14.3    999.0   0.00  
 202   23:00    0.0    64   90.1    10    347.9    13.1    999.0   0.00  
 202   23:10    0.0    64   90.2    10    346.5    13.7    999.0   0.00  
 202   23:20    0.0    64   90.1    10    339.6    12.5    999.0   0.00  
 202   23:30    0.0    64   90.1     9    344.2    12.5    999.0   0.00  
 202   23:40    0.0    64   90.2    10    342.6    13.1    999.0   0.00  
 202   23:50    0.0    64   90.2    10    340.1    14.9    999.0   0.00  
 203    0:00    0.0    64   90.2    10    346.8    13.1    999.0   0.00  
 203    0:10    0.0    64   90.2     9    342.1    12.5    999.0   0.00  
 203    0:20    0.0    64   90.3     9    351.7    11.9    999.0   0.00  
 203    0:30    0.0    64   90.3    11    342.6    14.9    999.0   0.00  
 203    0:40    0.0    64   90.3    10    350.0    14.3    999.0   0.00  
 203    0:50    0.0    64   90.4    11    349.5    14.9    999.0   0.00  
 203    1:00    0.0    64   90.4    11    341.2    15.5    999.0   0.00  
 203    1:10    0.0    64   90.4    11    338.6    14.3    999.0   0.00  
 203    1:20    0.0    64   90.4    12    345.6    15.5    999.0   0.00  
 203    1:30    0.0    64   90.4    10    348.1    13.1    999.0   0.00  
 203    1:40    0.0    64   90.4    12    342.7    16.7    999.0   0.00  
 203    1:50    0.0    64   90.4    12    343.0    16.1    999.0   0.00  
 203    2:00    0.0    64   90.4    13    343.1    18.5    999.0   0.00  
 203    2:10    0.0    64   90.5    12    342.8    15.5    999.0   0.00  
 203    2:20    0.0    64   90.5    12    347.6    16.7    999.0   0.00  
 203    2:30    0.0    64   90.5    12    351.5    18.5    999.0   0.00  
 203    2:40    0.0    64   90.5    12    347.6    16.1    999.0   0.00  
 203    2:50    0.0    63   90.5    14    344.7    17.9    999.0   0.00  
 203    3:00    0.0    63   90.6    14    344.6    19.1    999.0   0.00  
 203    3:10    0.0    63   90.6    13    345.0    16.7    999.0   0.00  
 203    3:20    0.0    63   90.6    13    345.2    16.1    999.0   0.00  
 203    3:30    0.0    63   90.6    11    347.8    14.9    999.0   0.00  
 203    3:40    0.0    63   90.6    13    350.2    16.7    999.0   0.00  
 203    3:50    0.0    63   90.6    12    350.1    14.9    999.0   0.00  
 203    4:00    0.0    63   90.7    11    349.0    14.9    999.0   0.00  
 203    4:10    0.0    63   90.6    11    349.8    13.7    999.0   0.00  
 203    4:20    0.0    63   90.7    10    349.1    12.5    999.0   0.00  
 203    4:30    0.0    63   90.7     9    349.6    11.9    999.0   0.00  
 203    4:40    0.0    63   90.7     8    352.5    10.2    999.0   0.00  
 203    4:50    0.0    63   90.7    10    354.8    11.9    999.0   0.00  
 203    5:00    1.0    63   90.7     9    352.1    11.9    999.0   0.00  
 203    5:10    4.0    63   90.7     8    347.7    10.8    999.0   0.00  
 203    5:20    9.0    63   90.7     9    348.0    10.8    999.0   0.00  
 203    5:30   12.0    63   90.8    11    349.8    13.1    999.0   0.00  
 203    5:40   21.0    63   90.8    11    349.2    14.3    999.0   0.00  
 203    5:50   29.0    63   90.8    11    349.8    14.9    999.0   0.00  
 203    6:00   35.0    64   90.8    10    353.1    14.9    999.0   0.00  
 203    6:10   48.0    64   90.8    10    350.0    13.7    999.0   0.00  
 203    6:20   58.0    64   90.8    10    354.0    13.7    999.0   0.00  
 203    6:30   81.0    64   90.8    11    339.6    13.7    999.0   0.00  
 203    6:40   89.0    64   90.8    11    347.3    14.9    999.0   0.00  
 203    6:50  117.0    64   90.8    11    353.6    14.9    999.0   0.00  
 203    7:00  148.0    64   90.6    11    347.1    14.3    999.0   0.00  
 203    7:10  182.0    64   90.5    11    349.4    14.3    999.0   0.00  

Return to Cactus Peak graphs page.


Western Regional Climate Center,wrcc@dri.edu